SVMI/CCS METAR and TAF weather

Enter ICAO airport designator
Station Type Date Time Source
SVMI METAR 2019/05/21 21:00 UTC NOAA

SVMI 212100Z 09004KT SCT016 28/24 Q1012


Station Type Date Time Source
SVMI Decoded METAR 2019/05/21 21:00 UTC NOAA

Caracas / Maiquetia Aerop. Intl. Simon Bolivar, Venezuela (SVMI) 10-36N 066-59W 48M
May 21, 2019 - 05:00 PM EDT / 2019.05.21 2100 UTC
Wind: from the E (090 degrees) at 5 MPH (4 KT):0
Sky conditions: partly cloudy
Temperature: 82 F (28 C)
Dew Point: 75 F (24 C)
Relative Humidity: 78%
Pressure (altimeter): 29.88 in. Hg (1012 hPa)
ob: SVMI 212100Z 09004KT SCT016 28/24 Q1012
cycle: 21

Station Type Date Time Source
SVMI TAF 2019/05/21 18:00 UTC NOAA

TAF SVMI 211600Z 2118/2218 07008KT 9999 FEW016 SCT020 TX27/2116Z TN24/2204Z
BECMG 2118/2122 07008KT 9000 DZ FEW016 SCT020

Example: see airport list